Terminal Aerodrome Forecast
Issued by NWS

Home | Current Version | Previous Version | Text Only | Print | Product List | Glossary On
Versions: 1 2 3 4 5 6 7 8 9 10 11 12 13 14 15 16 17 18 19
000
FTUS46 KSEW 200526
TAFBLI
TAF
KBLI 200526Z 2006/2106 16014G22KT P6SM -SHRA SCT020 BKN028 OVC035
     FM201000 16010KT P6SM VCSH SCT025 OVC035
     FM201200 15010KT P6SM SCT030 BKN050 BKN110
     FM202000 13013G22KT P6SM SCT050 BKN110 OVC200
     FM210200 13019G28KT P6SM SCT040 OVC090=

USA.gov is the U.S. government's official web portal to all federal, state and local government web resources and services.